Saint-Joachim, Canada
Current Conditions -  °F | °C
As of 8:00 AM on Friday 31 Oct 2014 (Local Time) from CYQB Reporting Station
Overcast Overcast  
Wind Chill: 37°   Ceiling: 5900
Heat Index: 37°   Visibility: 30mi
Dew Point: 32°   Wind: 2mph
Humidity: 81%   Direction: NA
Pressure: 30.04"   Gusts: NA
Location:  47.05°N, 70.85°W
Report Text: CYQB 311200Z VRB02KT 30SM OVC059 03/00 A3004 RMK SC8 SLP176
Loading
Personal Weather Stations






























Interactive Weather Map
Tropical Storm Tracking
New forecast layout! Learn more

10-Day Weather Forecast

Advertisements
Track Severe Weather on mobile